createdAt,value
2019-05-28T00:01:17.657Z,33.50
2019-05-28T00:03:46.450Z,25.37
2019-05-28T00:06:14.810Z,26.73
2019-05-28T00:08:43.227Z,27.43
2019-05-28T00:11:11.654Z,22.57
2019-05-28T00:13:41.017Z,23.93
2019-05-28T00:16:10.225Z,26.80
2019-05-28T00:18:39.103Z,35.97
2019-05-28T00:21:07.967Z,30.80
2019-05-28T00:23:37.031Z,30.57
2019-05-28T00:26:05.459Z,30.07
2019-05-28T00:28:33.709Z,33.70
2019-05-28T00:31:02.174Z,26.73
2019-05-28T00:33:30.971Z,30.67
2019-05-28T00:35:59.161Z,44.17
2019-05-28T00:38:27.619Z,42.30
2019-05-28T00:40:56.256Z,101.20
2019-05-28T00:43:24.915Z,48.17
2019-05-28T00:45:53.115Z,63.67
2019-05-28T00:48:21.996Z,223.53
2019-05-28T00:50:50.984Z,203.83
2019-05-28T00:53:19.179Z,299.47
2019-05-28T00:55:48.062Z,64.70
2019-05-28T00:58:16.791Z,57.10
2019-05-28T01:00:46.599Z,88.57
2019-05-28T01:03:15.184Z,58.97
2019-05-28T01:05:43.593Z,46.50
2019-05-28T01:08:12.147Z,51.80
2019-05-28T01:10:40.406Z,60.23
2019-05-28T01:13:09.457Z,157.53
2019-05-28T01:15:39.255Z,83.43
2019-05-28T01:18:07.775Z,145.97
2019-05-28T01:20:37.200Z,116.17
2019-05-28T01:23:05.413Z,201.60
2019-05-28T01:25:34.300Z,55.90
2019-05-28T01:28:02.864Z,237.67
2019-05-28T01:30:31.742Z,205.70
2019-05-28T01:33:00.286Z,337.70
2019-05-28T01:35:28.520Z,95.10
2019-05-28T01:37:56.730Z,344.97
2019-05-28T01:40:25.470Z,310.63
2019-05-28T01:42:54.017Z,177.37
2019-05-28T01:45:23.033Z,84.63
2019-05-28T01:47:51.321Z,119.20
2019-05-28T01:50:19.638Z,110.50
2019-05-28T01:52:48.469Z,135.03
2019-05-28T01:55:17.359Z,143.43
2019-05-28T01:57:46.221Z,191.47
2019-05-28T02:00:14.882Z,227.93
2019-05-28T02:02:43.846Z,130.93
2019-05-28T02:05:12.622Z,203.00
2019-05-28T02:07:41.092Z,106.47
2019-05-28T02:10:09.877Z,70.97
2019-05-28T02:12:38.956Z,150.17
2019-05-28T02:15:07.822Z,93.33
2019-05-28T02:17:37.560Z,81.80
2019-05-28T02:20:07.263Z,66.93
2019-05-28T02:22:35.734Z,54.27
2019-05-28T02:25:05.943Z,59.13
2019-05-28T02:27:34.589Z,65.77
2019-05-28T02:30:03.525Z,44.77
2019-05-28T02:32:32.099Z,33.10
2019-05-28T02:35:00.472Z,37.50
2019-05-28T02:37:29.159Z,24.37
2019-05-28T02:39:57.777Z,29.23
2019-05-28T02:42:26.508Z,21.10
2019-05-28T02:44:55.356Z,22.43
2019-05-28T02:47:23.885Z,24.37
2019-05-28T02:49:52.083Z,29.23
2019-05-28T02:52:20.757Z,25.30
2019-05-28T02:54:49.768Z,25.90
2019-05-28T02:57:18.384Z,24.83
2019-05-28T02:59:46.776Z,21.57
2019-05-28T03:02:16.025Z,33.03
2019-05-28T03:04:44.578Z,45.27
2019-05-28T03:07:13.329Z,58.33
2019-05-28T03:09:41.936Z,57.50
2019-05-28T03:12:10.491Z,36.57
2019-05-28T03:14:38.834Z,43.00
2019-05-28T03:17:08.089Z,48.70
2019-05-28T03:19:37.286Z,45.17
2019-05-28T03:22:05.606Z,56.83
2019-05-28T03:24:34.184Z,46.50
2019-05-28T03:27:02.774Z,42.17
2019-05-28T03:29:31.053Z,30.80
2019-05-28T03:32:07.638Z,42.97
2019-05-28T03:34:31.358Z,32.43
2019-05-28T03:36:59.782Z,30.03
2019-05-28T03:39:28.323Z,27.83
2019-05-28T03:41:56.741Z,28.90
2019-05-28T03:44:25.925Z,35.03
2019-05-28T03:46:54.694Z,46.93
2019-05-28T03:49:23.413Z,61.83
2019-05-28T03:51:52.551Z,72.73
2019-05-28T03:54:21.804Z,75.83
2019-05-28T03:56:50.816Z,37.13
2019-05-28T03:59:20.256Z,31.83
2019-05-28T04:01:49.090Z,49.17
2019-05-28T04:04:17.545Z,76.23
2019-05-28T04:06:46.462Z,55.07
2019-05-28T04:09:14.937Z,46.07
2019-05-28T04:11:44.989Z,199.43
2019-05-28T04:14:14.121Z,163.67
2019-05-28T04:16:42.665Z,202.17
2019-05-28T04:19:11.520Z,127.97
2019-05-28T04:21:41.016Z,26.60
2019-05-28T04:24:09.510Z,68.20
2019-05-28T04:26:38.230Z,27.27
2019-05-28T04:29:06.968Z,32.93
2019-05-28T04:31:35.741Z,27.47
2019-05-28T04:34:04.327Z,25.80
2019-05-28T04:36:33.277Z,22.50
2019-05-28T04:39:02.326Z,31.13
2019-05-28T04:41:30.744Z,27.13
2019-05-28T04:43:59.200Z,26.77
2019-05-28T04:46:27.672Z,27.03
2019-05-28T04:48:56.350Z,23.70
2019-05-28T04:51:24.615Z,22.17
2019-05-28T04:53:53.408Z,21.00
2019-05-28T04:56:21.643Z,20.10
2019-05-28T04:58:50.108Z,21.63
2019-05-28T05:01:18.694Z,19.87
2019-05-28T05:03:47.280Z,19.97
2019-05-28T05:06:15.711Z,20.47
2019-05-28T05:08:44.130Z,17.70
2019-05-28T05:11:12.446Z,18.50
2019-05-28T05:13:43.546Z,19.20
2019-05-28T05:16:11.487Z,20.37
2019-05-28T05:18:39.920Z,19.37
2019-05-28T05:21:08.437Z,20.00
2019-05-28T05:23:38.326Z,17.23
2019-05-28T05:26:08.647Z,15.07
2019-05-28T05:28:36.810Z,15.83
2019-05-28T05:31:05.416Z,18.43
2019-05-28T05:33:34.416Z,12.80
2019-05-28T05:36:03.063Z,12.23
2019-05-28T05:38:31.749Z,11.67
2019-05-28T05:41:00.160Z,12.07
2019-05-28T05:43:28.644Z,11.53
2019-05-28T05:45:57.483Z,9.43
2019-05-28T05:48:26.219Z,10.30
2019-05-28T05:50:54.411Z,11.33
2019-05-28T05:53:22.757Z,11.63
2019-05-28T05:55:50.961Z,10.80
2019-05-28T05:58:19.811Z,14.00
2019-05-28T06:00:48.065Z,31.75
2019-05-28T06:03:17.692Z,32.03
2019-05-28T06:05:46.126Z,32.73
2019-05-28T06:08:14.571Z,27.27
2019-05-28T06:10:42.839Z,20.40
2019-05-28T06:13:11.657Z,19.10
2019-05-28T06:15:40.233Z,34.07
2019-05-28T06:18:09.050Z,69.27
2019-05-28T06:20:37.473Z,53.30
2019-05-28T06:23:05.726Z,13.53
2019-05-28T06:25:35.116Z,9.50
2019-05-28T06:28:03.743Z,8.67
2019-05-28T06:30:32.630Z,9.55
2019-05-28T06:33:00.848Z,7.92
2019-05-28T06:35:29.470Z,7.97
2019-05-28T06:37:57.955Z,7.47
2019-05-28T06:40:26.605Z,9.18
2019-05-28T06:42:54.870Z,9.88
2019-05-28T06:45:23.317Z,9.30
2019-05-28T06:47:52.511Z,9.05
2019-05-28T06:50:21.614Z,11.28
2019-05-28T06:52:50.170Z,10.35
2019-05-28T06:55:18.945Z,9.50
2019-05-28T06:57:47.182Z,9.20
2019-05-28T07:00:15.696Z,10.55
2019-05-28T07:02:44.050Z,12.82
2019-05-28T07:05:12.330Z,12.37
2019-05-28T07:07:40.597Z,9.60
2019-05-28T07:10:08.772Z,9.45
2019-05-28T07:12:37.281Z,9.30
2019-05-28T07:15:06.086Z,9.63
2019-05-28T07:17:34.464Z,8.58
2019-05-28T07:20:03.463Z,7.72
2019-05-28T07:22:31.705Z,8.78
2019-05-28T07:25:00.379Z,8.93
2019-05-28T07:27:29.801Z,8.25
2019-05-28T07:29:58.280Z,7.62
2019-05-28T07:32:27.289Z,8.75
2019-05-28T07:34:55.695Z,8.38
2019-05-28T07:37:24.256Z,10.65
2019-05-28T07:39:52.736Z,9.80
2019-05-28T07:42:32.375Z,9.58
2019-05-28T07:44:51.515Z,11.03
2019-05-28T07:47:19.999Z,11.28
2019-05-28T07:49:48.207Z,8.60
2019-05-28T07:52:16.725Z,7.90
2019-05-28T07:54:44.908Z,9.23
2019-05-28T07:57:13.326Z,8.03
2019-05-28T07:59:42.320Z,9.90
2019-05-28T08:02:10.671Z,12.43
2019-05-28T08:04:47.249Z,8.17
2019-05-28T08:09:44.064Z,8.47
2019-05-28T08:12:12.725Z,14.17
2019-05-28T08:14:41.330Z,9.23
2019-05-28T08:17:09.749Z,8.30
2019-05-28T08:19:38.453Z,10.65
2019-05-28T08:22:06.616Z,9.63
2019-05-28T08:24:34.968Z,9.10
2019-05-28T08:27:03.450Z,11.77
2019-05-28T08:29:32.782Z,10.07
2019-05-28T08:32:01.150Z,11.17
2019-05-28T08:34:29.724Z,13.88
2019-05-28T08:37:05.713Z,10.00
2019-05-28T08:39:33.231Z,11.57
2019-05-28T08:41:59.257Z,13.33
2019-05-28T08:44:27.496Z,11.63
2019-05-28T08:46:56.235Z,10.93
2019-05-28T08:49:24.796Z,8.27
2019-05-28T08:51:53.201Z,7.57
2019-05-28T08:54:21.726Z,7.80
2019-05-28T08:56:50.058Z,9.50
2019-05-28T08:59:18.308Z,9.47
2019-05-28T09:01:46.807Z,6.60
2019-05-28T09:04:15.185Z,6.90
2019-05-28T09:06:43.645Z,12.17
2019-05-28T09:09:12.146Z,9.63
2019-05-28T09:11:40.515Z,9.67
2019-05-28T09:14:08.987Z,11.07
2019-05-28T09:16:37.776Z,9.00
2019-05-28T09:19:06.042Z,9.03
2019-05-28T09:21:34.626Z,8.90
2019-05-28T09:24:03.095Z,10.40
2019-05-28T09:26:31.659Z,14.28
2019-05-28T09:29:01.504Z,9.73
2019-05-28T09:31:31.234Z,12.27
2019-05-28T09:33:59.741Z,13.10
2019-05-28T09:36:28.275Z,13.22
2019-05-28T09:38:56.888Z,18.35
2019-05-28T09:41:25.848Z,20.50
2019-05-28T09:43:54.159Z,18.20
2019-05-28T09:46:22.684Z,13.55
2019-05-28T09:48:51.323Z,10.00
2019-05-28T09:51:19.827Z,8.57
2019-05-28T09:53:48.651Z,13.77
2019-05-28T09:56:17.621Z,8.50
2019-05-28T09:58:46.045Z,9.10
2019-05-28T10:01:14.485Z,8.75
2019-05-28T10:03:42.739Z,11.10
2019-05-28T10:06:17.367Z,8.53
2019-05-28T10:08:42.589Z,8.37
2019-05-28T10:11:11.517Z,8.78
2019-05-28T10:13:41.769Z,8.60
2019-05-28T10:16:11.469Z,10.43
2019-05-28T10:18:39.871Z,9.53
2019-05-28T10:21:18.402Z,9.63
2019-05-28T10:23:38.621Z,13.60
2019-05-28T10:26:07.349Z,10.53
2019-05-28T10:28:36.274Z,7.40
2019-05-28T10:31:05.261Z,7.10
2019-05-28T10:33:34.839Z,10.70
2019-05-28T10:36:03.707Z,11.93
2019-05-28T10:38:32.067Z,13.20
2019-05-28T10:41:00.579Z,14.03
2019-05-28T10:43:29.332Z,11.93
2019-05-28T10:45:59.707Z,13.87
2019-05-28T10:48:28.260Z,12.43
2019-05-28T10:50:56.886Z,10.57
2019-05-28T10:53:25.267Z,11.83
2019-05-28T10:55:53.472Z,10.60
2019-05-28T10:58:22.100Z,8.63
2019-05-28T11:00:50.429Z,10.57
2019-05-28T11:03:18.779Z,9.83
2019-05-28T11:05:46.996Z,8.40
2019-05-28T11:08:16.323Z,8.90
2019-05-28T11:10:44.733Z,6.83
2019-05-28T11:13:13.584Z,8.10
2019-05-28T11:15:42.163Z,9.10
2019-05-28T11:18:10.915Z,7.40
2019-05-28T11:20:39.394Z,7.07
2019-05-28T11:23:08.187Z,9.13
2019-05-28T11:25:36.805Z,6.77
2019-05-28T11:28:05.394Z,7.57
2019-05-28T11:30:33.985Z,7.83
2019-05-28T11:33:02.673Z,8.30
2019-05-28T11:35:32.266Z,8.67
2019-05-28T11:38:00.724Z,11.15
2019-05-28T11:40:30.239Z,14.07
2019-05-28T11:42:59.091Z,8.87
2019-05-28T11:45:28.042Z,3.83
2019-05-28T11:47:56.582Z,5.70
2019-05-28T11:50:25.051Z,6.07
2019-05-28T11:52:53.514Z,4.90
2019-05-28T11:55:21.887Z,8.00
2019-05-28T11:57:50.984Z,7.00
2019-05-28T12:00:19.815Z,4.17
2019-05-28T12:02:48.428Z,6.30
2019-05-28T12:05:17.038Z,5.62
2019-05-28T12:07:45.323Z,4.72
2019-05-28T12:10:13.875Z,5.47
2019-05-28T12:12:42.429Z,5.85
2019-05-28T12:15:11.494Z,4.65
2019-05-28T12:17:43.185Z,4.08
2019-05-28T12:20:12.775Z,4.72
2019-05-28T12:22:41.446Z,4.20
2019-05-28T12:25:09.986Z,4.23
2019-05-28T12:27:38.167Z,4.85
2019-05-28T12:30:07.315Z,3.77
2019-05-28T12:32:35.896Z,5.30
2019-05-28T12:35:06.907Z,3.92
2019-05-28T12:37:47.786Z,2.77
2019-05-28T12:40:07.024Z,5.42
2019-05-28T12:42:35.769Z,5.28
2019-05-28T12:45:10.552Z,4.00
2019-05-28T12:47:39.340Z,5.83
2019-05-28T12:50:19.116Z,4.35
2019-05-28T12:52:38.495Z,4.65
2019-05-28T12:55:07.614Z,2.30
2019-05-28T12:57:35.967Z,6.25
2019-05-28T13:00:07.915Z,9.13
2019-05-28T13:02:36.619Z,64.72
2019-05-28T13:05:06.419Z,7.20
2019-05-28T13:07:35.189Z,8.10
2019-05-28T13:10:05.108Z,20.52
2019-05-28T13:12:33.345Z,4.17
2019-05-28T13:15:02.037Z,2.37
2019-05-28T13:17:30.235Z,5.40
2019-05-28T13:19:58.601Z,5.58
2019-05-28T13:22:26.846Z,4.85
2019-05-28T13:24:55.517Z,6.95
2019-05-28T13:27:24.208Z,2.65
2019-05-28T13:29:52.796Z,3.98
2019-05-28T13:32:21.713Z,5.37
2019-05-28T13:34:50.477Z,6.42
2019-05-28T13:37:19.133Z,3.80
2019-05-28T13:39:48.612Z,5.58
2019-05-28T13:42:17.017Z,5.15
2019-05-28T13:44:45.335Z,6.67
2019-05-28T13:47:32.145Z,5.03
2019-05-28T13:49:43.613Z,2.92
2019-05-28T13:52:12.882Z,3.00
2019-05-28T13:54:41.042Z,53.80
2019-05-28T13:57:09.384Z,3.08
2019-05-28T13:59:37.737Z,3.45
2019-05-28T14:02:05.940Z,3.95
2019-05-28T14:04:34.384Z,5.95
2019-05-28T14:07:03.342Z,3.60
2019-05-28T14:09:32.258Z,4.85
2019-05-28T14:12:00.543Z,1.42
2019-05-28T14:14:28.848Z,2.90
2019-05-28T14:16:57.099Z,6.50
2019-05-28T14:19:26.113Z,6.15
2019-05-28T14:21:55.081Z,3.70
2019-05-28T14:24:24.174Z,2.17
2019-05-28T14:26:53.029Z,3.75
2019-05-28T14:29:21.361Z,5.95
2019-05-28T14:31:49.626Z,3.05
2019-05-28T14:34:18.340Z,3.45
2019-05-28T14:36:47.262Z,3.22
2019-05-28T14:39:15.409Z,4.35
2019-05-28T14:41:45.066Z,4.95
2019-05-28T14:44:13.675Z,4.35
2019-05-28T14:46:41.893Z,4.03
2019-05-28T14:49:10.166Z,2.02
2019-05-28T14:51:38.426Z,6.60
2019-05-28T14:54:06.924Z,5.12
2019-05-28T14:56:35.423Z,2.10
2019-05-28T14:59:03.989Z,5.17
2019-05-28T15:01:32.880Z,3.98
2019-05-28T15:04:01.427Z,4.67
2019-05-28T15:06:30.391Z,4.62
2019-05-28T15:08:58.930Z,3.95
2019-05-28T15:11:27.171Z,3.47
2019-05-28T15:13:55.737Z,4.07
2019-05-28T15:16:24.210Z,4.83
2019-05-28T15:18:52.415Z,1.70
2019-05-28T15:21:20.805Z,2.25
2019-05-28T15:23:49.390Z,3.75
2019-05-28T15:26:17.762Z,3.02
2019-05-28T15:28:46.367Z,2.47
2019-05-28T15:31:14.972Z,4.65
2019-05-28T15:33:43.326Z,1.85
2019-05-28T15:36:11.760Z,2.42
2019-05-28T15:38:40.519Z,3.37
2019-05-28T15:41:09.598Z,27.37
2019-05-28T15:43:38.916Z,6.22
2019-05-28T15:46:07.414Z,4.53
2019-05-28T15:48:35.669Z,1.25
2019-05-28T15:51:05.098Z,2.50
2019-05-28T15:53:33.779Z,2.08
2019-05-28T15:56:02.662Z,2.80
2019-05-28T15:58:32.285Z,1.95
2019-05-28T16:01:00.589Z,2.70
2019-05-28T16:03:29.315Z,2.10
2019-05-28T16:05:58.008Z,3.67
2019-05-28T16:08:26.273Z,2.70
2019-05-28T16:10:55.179Z,1.85
2019-05-28T16:13:23.538Z,1.47
2019-05-28T16:15:52.494Z,2.42
2019-05-28T16:18:20.690Z,10.45
2019-05-28T16:20:49.178Z,3.10
2019-05-28T16:23:17.671Z,3.12
2019-05-28T16:25:46.345Z,24.50
2019-05-28T16:28:14.921Z,47.53
2019-05-28T16:30:43.881Z,28.40
2019-05-28T16:33:12.389Z,93.12
2019-05-28T16:35:40.795Z,4.22
2019-05-28T16:38:09.258Z,3.22
2019-05-28T16:40:37.534Z,1.95
2019-05-28T16:43:06.081Z,5.07
2019-05-28T16:45:35.337Z,5.75
2019-05-28T16:48:04.022Z,3.77
2019-05-28T16:50:32.703Z,3.22
2019-05-28T16:53:01.497Z,1.32
2019-05-28T16:55:30.072Z,2.47
2019-05-28T16:57:58.722Z,4.60
2019-05-28T17:00:27.258Z,4.25
2019-05-28T17:02:56.341Z,4.00
2019-05-28T17:05:24.875Z,5.28
2019-05-28T17:07:53.221Z,4.23
2019-05-28T17:10:32.471Z,2.58
2019-05-28T17:12:52.094Z,1.50
2019-05-28T17:15:20.463Z,4.20
2019-05-28T17:17:48.664Z,3.25
2019-05-28T17:20:17.515Z,3.02
2019-05-28T17:22:45.810Z,5.60
2019-05-28T17:25:14.363Z,14.20
2019-05-28T17:27:42.781Z,5.00
2019-05-28T17:30:19.156Z,4.27
2019-05-28T17:32:41.398Z,2.80
2019-05-28T17:35:10.480Z,6.92
2019-05-28T17:37:38.652Z,8.63
2019-05-28T17:40:07.354Z,15.32
2019-05-28T17:42:35.873Z,58.70
2019-05-28T17:45:07.552Z,28.25
2019-05-28T17:47:43.248Z,58.87
2019-05-28T17:50:08.188Z,18.20
2019-05-28T17:52:36.827Z,10.33
2019-05-28T17:55:05.586Z,38.70
2019-05-28T17:57:34.688Z,84.23
2019-05-28T18:00:03.139Z,55.53
2019-05-28T18:02:31.347Z,22.37
2019-05-28T18:04:59.863Z,17.00
2019-05-28T18:07:28.800Z,31.43
2019-05-28T18:09:57.275Z,22.70
2019-05-28T18:12:25.586Z,72.73
2019-05-28T18:14:54.109Z,31.90
2019-05-28T18:17:23.015Z,44.37
2019-05-28T18:19:51.265Z,31.57
2019-05-28T18:22:20.521Z,89.90
2019-05-28T18:24:48.765Z,49.03
2019-05-28T18:27:17.523Z,35.83
2019-05-28T18:29:45.946Z,15.13
2019-05-28T18:32:14.398Z,12.70
2019-05-28T18:34:42.814Z,9.70
2019-05-28T18:37:11.341Z,8.97
2019-05-28T18:39:39.999Z,8.40
2019-05-28T18:42:08.689Z,8.67
2019-05-28T18:44:37.437Z,11.47
2019-05-28T18:47:06.131Z,9.70
2019-05-28T18:49:35.282Z,7.93
2019-05-28T18:52:04.141Z,8.43
2019-05-28T18:54:32.592Z,6.43
2019-05-28T18:57:01.140Z,7.20
2019-05-28T18:59:29.597Z,6.70
2019-05-28T19:01:59.470Z,8.10
2019-05-28T19:04:28.419Z,8.63
2019-05-28T19:06:56.812Z,11.77
2019-05-28T19:15:02.897Z,12.87
2019-05-28T19:17:31.155Z,14.47
2019-05-28T19:19:59.769Z,12.37
2019-05-28T19:22:28.321Z,12.07
2019-05-28T19:24:57.504Z,11.10
2019-05-28T19:27:26.668Z,12.00
2019-05-28T19:29:55.015Z,10.20
2019-05-28T19:32:23.707Z,9.07
2019-05-28T19:34:52.664Z,12.30
2019-05-28T19:37:42.833Z,12.20
2019-05-28T19:39:56.095Z,19.57
2019-05-28T19:42:24.379Z,19.03
2019-05-28T19:44:55.988Z,39.63
2019-05-28T19:47:24.409Z,16.80
2019-05-28T19:49:53.013Z,14.73
2019-05-28T19:52:22.258Z,10.73
2019-05-28T19:54:50.996Z,10.87
2019-05-28T19:57:19.593Z,9.40
2019-05-28T19:59:47.860Z,9.00
2019-05-28T20:02:16.547Z,11.60
2019-05-28T20:04:44.972Z,7.80
2019-05-28T20:07:13.744Z,7.07
2019-05-28T20:09:42.435Z,7.90
2019-05-28T20:12:12.698Z,6.73
2019-05-28T20:14:41.330Z,14.43
2019-05-28T20:17:10.397Z,11.00
2019-05-28T20:19:38.602Z,12.83
2019-05-28T20:22:07.433Z,13.67
2019-05-28T20:24:36.579Z,13.10
2019-05-28T20:27:05.120Z,8.13
2019-05-28T20:29:33.351Z,10.93
2019-05-28T20:32:03.106Z,14.67
2019-05-28T20:34:33.930Z,19.30
2019-05-28T20:37:03.561Z,19.90
2019-05-28T20:39:32.537Z,14.37
2019-05-28T20:42:01.971Z,13.50
2019-05-28T20:44:30.632Z,14.73
2019-05-28T20:47:00.470Z,11.23
2019-05-28T20:49:29.157Z,16.40
2019-05-28T20:51:58.762Z,17.13
2019-05-28T20:54:28.323Z,17.17
2019-05-28T20:56:58.052Z,21.37
2019-05-28T20:59:27.244Z,17.83
2019-05-28T21:01:58.562Z,20.07
2019-05-28T21:04:27.270Z,18.93
2019-05-28T21:06:56.645Z,23.17
2019-05-28T21:09:26.759Z,39.13
2019-05-28T21:11:56.669Z,43.07
2019-05-28T21:14:25.702Z,174.17
2019-05-28T21:16:55.058Z,91.50
2019-05-28T21:19:23.401Z,50.97
2019-05-28T21:21:51.888Z,53.67
2019-05-28T21:24:20.591Z,77.60
2019-05-28T21:26:50.049Z,79.63
2019-05-28T21:29:18.823Z,51.40
2019-05-28T21:31:47.180Z,45.03
2019-05-28T21:34:15.579Z,36.47
2019-05-28T21:36:45.189Z,27.23
2019-05-28T21:39:13.455Z,20.53
2019-05-28T21:41:41.831Z,14.27
2019-05-28T21:44:10.292Z,15.57
2019-05-28T21:46:38.526Z,16.10
2019-05-28T21:49:07.285Z,22.77
2019-05-28T21:51:35.660Z,22.83
2019-05-28T21:54:04.228Z,22.73
2019-05-28T21:56:33.559Z,19.40
2019-05-28T21:59:02.168Z,16.20
2019-05-28T22:01:30.574Z,13.07
2019-05-28T22:03:59.478Z,12.30
2019-05-28T22:06:28.096Z,14.67
2019-05-28T22:08:57.754Z,15.57
2019-05-28T22:11:26.316Z,13.13
2019-05-28T22:13:56.022Z,19.47
2019-05-28T22:16:24.393Z,26.23
2019-05-28T22:18:52.566Z,13.63
2019-05-28T22:21:20.927Z,13.03
2019-05-28T22:23:49.491Z,18.90
2019-05-28T22:26:18.162Z,21.47
2019-05-28T22:28:47.029Z,16.40
2019-05-28T22:31:15.337Z,16.07
2019-05-28T22:33:43.884Z,18.00
2019-05-28T22:36:12.644Z,19.13
2019-05-28T22:38:41.241Z,18.23
2019-05-28T22:41:09.529Z,19.60
2019-05-28T22:43:38.062Z,16.87
2019-05-28T22:46:07.346Z,19.53
2019-05-28T22:48:35.722Z,18.13
2019-05-28T22:51:05.574Z,17.83
2019-05-28T22:53:34.406Z,19.53
2019-05-28T22:56:04.896Z,15.27
2019-05-28T22:58:33.708Z,17.90
2019-05-28T23:01:02.570Z,16.03
2019-05-28T23:03:31.284Z,20.17
2019-05-28T23:06:01.003Z,19.03
2019-05-28T23:08:29.384Z,19.70
2019-05-28T23:10:57.730Z,17.37
2019-05-28T23:13:26.258Z,16.17
2019-05-28T23:15:54.987Z,18.67
2019-05-28T23:18:23.815Z,16.13
2019-05-28T23:20:52.120Z,16.07
2019-05-28T23:23:20.598Z,15.53
2019-05-28T23:25:49.035Z,10.50
2019-05-28T23:28:17.289Z,11.87
2019-05-28T23:30:46.012Z,12.23
2019-05-28T23:33:14.506Z,13.07
2019-05-28T23:35:43.281Z,14.77
2019-05-28T23:38:11.741Z,12.80
2019-05-28T23:40:40.567Z,12.20
2019-05-28T23:43:09.496Z,14.27
2019-05-28T23:45:38.477Z,14.63
2019-05-28T23:48:12.819Z,13.57
2019-05-28T23:50:37.230Z,14.17
2019-05-28T23:53:05.688Z,15.13
2019-05-28T23:55:34.428Z,15.50
2019-05-28T23:58:02.990Z,14.50
